sensor_id;sensor_type;location;lat;lon;timestamp;P1;durP1;ratioP1;P2;durP2;ratioP2
11612;SDS011;5862;48.718;9.108;2022-07-24T00:01:40;4.85;;;4.55;;
11612;SDS011;5862;48.718;9.108;2022-07-24T00:04:06;4.53;;;4.13;;
11612;SDS011;5862;48.718;9.108;2022-07-24T00:06:33;4.97;;;4.47;;
11612;SDS011;5862;48.718;9.108;2022-07-24T00:09:03;5.40;;;4.90;;
11612;SDS011;5862;48.718;9.108;2022-07-24T00:11:30;4.95;;;4.55;;
11612;SDS011;5862;48.718;9.108;2022-07-24T00:13:57;4.97;;;4.57;;
11612;SDS011;5862;48.718;9.108;2022-07-24T00:16:24;4.38;;;4.07;;
11612;SDS011;5862;48.718;9.108;2022-07-24T00:18:53;5.07;;;4.68;;
11612;SDS011;5862;48.718;9.108;2022-07-24T00:21:25;5.35;;;4.85;;
11612;SDS011;5862;48.718;9.108;2022-07-24T00:23:53;5.10;;;4.68;;
11612;SDS011;5862;48.718;9.108;2022-07-24T00:26:20;5.13;;;4.72;;
11612;SDS011;5862;48.718;9.108;2022-07-24T00:28:51;4.57;;;4.18;;
11612;SDS011;5862;48.718;9.108;2022-07-24T00:31:18;4.78;;;4.43;;
11612;SDS011;5862;48.718;9.108;2022-07-24T00:33:45;4.70;;;4.40;;
11612;SDS011;5862;48.718;9.108;2022-07-24T00:36:12;6.10;;;4.72;;
11612;SDS011;5862;48.718;9.108;2022-07-24T00:38:39;5.40;;;4.90;;
11612;SDS011;5862;48.718;9.108;2022-07-24T00:41:10;4.82;;;4.47;;
11612;SDS011;5862;48.718;9.108;2022-07-24T00:46:26;5.00;;;4.60;;
11612;SDS011;5862;48.718;9.108;2022-07-24T00:48:53;5.00;;;4.60;;
11612;SDS011;5862;48.718;9.108;2022-07-24T00:51:22;5.10;;;4.70;;
11612;SDS011;5862;48.718;9.108;2022-07-24T00:53:48;4.72;;;4.32;;
11612;SDS011;5862;48.718;9.108;2022-07-24T00:56:15;4.57;;;4.18;;
11612;SDS011;5862;48.718;9.108;2022-07-24T00:58:47;4.97;;;4.50;;
11612;SDS011;5862;48.718;9.108;2022-07-24T01:01:14;4.95;;;4.55;;
11612;SDS011;5862;48.718;9.108;2022-07-24T01:03:47;4.53;;;4.22;;
11612;SDS011;5862;48.718;9.108;2022-07-24T01:06:16;5.15;;;4.75;;
11612;SDS011;5862;48.718;9.108;2022-07-24T01:08:45;4.63;;;4.22;;
11612;SDS011;5862;48.718;9.108;2022-07-24T01:11:12;4.47;;;4.18;;
11612;SDS011;5862;48.718;9.108;2022-07-24T01:13:39;5.07;;;4.68;;
11612;SDS011;5862;48.718;9.108;2022-07-24T01:16:08;5.50;;;5.00;;
11612;SDS011;5862;48.718;9.108;2022-07-24T01:18:40;4.93;;;4.53;;
11612;SDS011;5862;48.718;9.108;2022-07-24T01:21:06;5.10;;;4.70;;
11612;SDS011;5862;48.718;9.108;2022-07-24T01:23:33;4.82;;;4.32;;
11612;SDS011;5862;48.718;9.108;2022-07-24T01:26:00;4.90;;;4.53;;
11612;SDS011;5862;48.718;9.108;2022-07-24T01:28:31;5.57;;;5.10;;
11612;SDS011;5862;48.718;9.108;2022-07-24T01:30:57;5.03;;;4.45;;
11612;SDS011;5862;48.718;9.108;2022-07-24T01:33:24;5.82;;;5.43;;
11612;SDS011;5862;48.718;9.108;2022-07-24T01:35:50;5.45;;;5.05;;
11612;SDS011;5862;48.718;9.108;2022-07-24T01:38:18;6.15;;;5.68;;
11612;SDS011;5862;48.718;9.108;2022-07-24T01:40:44;4.82;;;4.53;;
11612;SDS011;5862;48.718;9.108;2022-07-24T01:43:13;5.82;;;5.22;;
11612;SDS011;5862;48.718;9.108;2022-07-24T01:45:42;4.45;;;4.15;;
11612;SDS011;5862;48.718;9.108;2022-07-24T01:48:08;5.85;;;5.35;;
11612;SDS011;5862;48.718;9.108;2022-07-24T01:50:35;5.72;;;5.22;;
11612;SDS011;5862;48.718;9.108;2022-07-24T01:53:02;5.38;;;4.88;;
11612;SDS011;5862;48.718;9.108;2022-07-24T01:55:29;6.38;;;5.78;;
11612;SDS011;5862;48.718;9.108;2022-07-24T01:57:56;6.20;;;5.70;;
11612;SDS011;5862;48.718;9.108;2022-07-24T02:00:23;6.07;;;5.57;;
11612;SDS011;5862;48.718;9.108;2022-07-24T02:02:50;4.70;;;4.38;;
11612;SDS011;5862;48.718;9.108;2022-07-24T02:05:17;5.43;;;5.03;;
11612;SDS011;5862;48.718;9.108;2022-07-24T02:07:53;5.80;;;5.30;;
11612;SDS011;5862;48.718;9.108;2022-07-24T02:10:24;5.40;;;5.00;;
11612;SDS011;5862;48.718;9.108;2022-07-24T02:12:54;5.72;;;5.22;;
11612;SDS011;5862;48.718;9.108;2022-07-24T02:15:23;4.97;;;4.57;;
11612;SDS011;5862;48.718;9.108;2022-07-24T02:17:56;5.45;;;4.95;;
11612;SDS011;5862;48.718;9.108;2022-07-24T02:20:23;5.88;;;5.38;;
11612;SDS011;5862;48.718;9.108;2022-07-24T02:22:52;5.50;;;5.10;;
11612;SDS011;5862;48.718;9.108;2022-07-24T02:25:19;5.82;;;5.30;;
11612;SDS011;5862;48.718;9.108;2022-07-24T02:27:46;7.30;;;6.70;;
11612;SDS011;5862;48.718;9.108;2022-07-24T02:30:13;7.07;;;6.53;;
11612;SDS011;5862;48.718;9.108;2022-07-24T02:32:41;7.32;;;6.72;;
11612;SDS011;5862;48.718;9.108;2022-07-24T02:35:08;6.05;;;5.55;;
11612;SDS011;5862;48.718;9.108;2022-07-24T02:37:36;6.80;;;6.30;;
11612;SDS011;5862;48.718;9.108;2022-07-24T02:40:08;5.97;;;5.47;;
11612;SDS011;5862;48.718;9.108;2022-07-24T02:42:38;5.40;;;5.00;;
11612;SDS011;5862;48.718;9.108;2022-07-24T02:45:05;5.35;;;4.95;;
11612;SDS011;5862;48.718;9.108;2022-07-24T02:47:32;6.75;;;6.22;;
11612;SDS011;5862;48.718;9.108;2022-07-24T02:49:58;5.57;;;5.07;;
11612;SDS011;5862;48.718;9.108;2022-07-24T02:52:28;6.13;;;5.63;;
11612;SDS011;5862;48.718;9.108;2022-07-24T02:54:56;6.60;;;6.10;;
11612;SDS011;5862;48.718;9.108;2022-07-24T02:57:28;6.35;;;5.82;;
11612;SDS011;5862;48.718;9.108;2022-07-24T02:59:56;6.50;;;5.97;;
11612;SDS011;5862;48.718;9.108;2022-07-24T03:02:22;6.25;;;5.53;;
11612;SDS011;5862;48.718;9.108;2022-07-24T03:04:49;6.35;;;5.85;;
11612;SDS011;5862;48.718;9.108;2022-07-24T03:07:18;6.72;;;6.20;;
11612;SDS011;5862;48.718;9.108;2022-07-24T03:09:47;7.05;;;6.53;;
11612;SDS011;5862;48.718;9.108;2022-07-24T03:12:13;6.95;;;6.35;;
11612;SDS011;5862;48.718;9.108;2022-07-24T03:14:40;6.20;;;5.70;;
11612;SDS011;5862;48.718;9.108;2022-07-24T03:17:09;5.63;;;5.03;;
11612;SDS011;5862;48.718;9.108;2022-07-24T03:19:35;4.63;;;4.30;;
11612;SDS011;5862;48.718;9.108;2022-07-24T03:22:02;5.30;;;4.90;;
11612;SDS011;5862;48.718;9.108;2022-07-24T03:24:33;4.90;;;4.50;;
11612;SDS011;5862;48.718;9.108;2022-07-24T03:27:02;6.18;;;5.57;;
11612;SDS011;5862;48.718;9.108;2022-07-24T03:29:31;6.10;;;5.50;;
11612;SDS011;5862;48.718;9.108;2022-07-24T03:31:59;6.40;;;5.88;;
11612;SDS011;5862;48.718;9.108;2022-07-24T03:34:28;4.95;;;4.55;;
11612;SDS011;5862;48.718;9.108;2022-07-24T03:36:55;6.18;;;5.68;;
11612;SDS011;5862;48.718;9.108;2022-07-24T03:39:24;5.80;;;5.30;;
11612;SDS011;5862;48.718;9.108;2022-07-24T03:41:55;6.65;;;6.07;;
11612;SDS011;5862;48.718;9.108;2022-07-24T03:44:21;6.25;;;5.65;;
11612;SDS011;5862;48.718;9.108;2022-07-24T03:46:53;5.25;;;4.85;;
11612;SDS011;5862;48.718;9.108;2022-07-24T03:49:19;4.82;;;4.43;;
11612;SDS011;5862;48.718;9.108;2022-07-24T03:51:46;4.68;;;4.32;;
11612;SDS011;5862;48.718;9.108;2022-07-24T03:54:17;6.03;;;5.53;;
11612;SDS011;5862;48.718;9.108;2022-07-24T03:56:44;6.30;;;5.80;;
11612;SDS011;5862;48.718;9.108;2022-07-24T03:59:15;5.97;;;5.47;;
11612;SDS011;5862;48.718;9.108;2022-07-24T04:01:44;5.00;;;4.60;;
11612;SDS011;5862;48.718;9.108;2022-07-24T04:04:15;5.43;;;4.93;;
11612;SDS011;5862;48.718;9.108;2022-07-24T04:06:44;6.07;;;5.60;;
11612;SDS011;5862;48.718;9.108;2022-07-24T04:09:11;5.20;;;4.80;;
11612;SDS011;5862;48.718;9.108;2022-07-24T04:11:40;6.00;;;5.50;;
11612;SDS011;5862;48.718;9.108;2022-07-24T04:14:06;5.28;;;4.88;;
11612;SDS011;5862;48.718;9.108;2022-07-24T04:16:33;5.28;;;4.88;;
11612;SDS011;5862;48.718;9.108;2022-07-24T04:18:59;5.68;;;5.28;;
11612;SDS011;5862;48.718;9.108;2022-07-24T04:21:35;5.55;;;5.05;;
11612;SDS011;5862;48.718;9.108;2022-07-24T04:24:06;5.93;;;5.43;;
11612;SDS011;5862;48.718;9.108;2022-07-24T04:26:34;5.68;;;5.28;;
11612;SDS011;5862;48.718;9.108;2022-07-24T04:29:03;5.80;;;5.30;;
11612;SDS011;5862;48.718;9.108;2022-07-24T04:31:33;6.45;;;5.95;;
11612;SDS011;5862;48.718;9.108;2022-07-24T04:34:00;5.47;;;5.07;;
11612;SDS011;5862;48.718;9.108;2022-07-24T04:36:26;6.40;;;5.90;;
11612;SDS011;5862;48.718;9.108;2022-07-24T04:38:55;6.13;;;5.63;;
11612;SDS011;5862;48.718;9.108;2022-07-24T04:41:22;6.00;;;5.50;;
11612;SDS011;5862;48.718;9.108;2022-07-24T04:43:49;5.97;;;5.45;;
11612;SDS011;5862;48.718;9.108;2022-07-24T04:46:16;5.68;;;5.18;;
11612;SDS011;5862;48.718;9.108;2022-07-24T04:48:43;5.45;;;5.05;;
11612;SDS011;5862;48.718;9.108;2022-07-24T04:51:10;5.30;;;4.90;;
11612;SDS011;5862;48.718;9.108;2022-07-24T04:53:37;5.15;;;4.75;;
11612;SDS011;5862;48.718;9.108;2022-07-24T04:56:03;5.45;;;5.05;;
11612;SDS011;5862;48.718;9.108;2022-07-24T04:58:30;5.70;;;5.20;;
11612;SDS011;5862;48.718;9.108;2022-07-24T05:00:57;6.00;;;5.50;;
11612;SDS011;5862;48.718;9.108;2022-07-24T05:03:26;5.60;;;5.10;;
11612;SDS011;5862;48.718;9.108;2022-07-24T05:05:57;6.55;;;5.88;;
11612;SDS011;5862;48.718;9.108;2022-07-24T05:08:26;6.07;;;5.53;;
11612;SDS011;5862;48.718;9.108;2022-07-24T05:10:55;5.88;;;5.38;;
11612;SDS011;5862;48.718;9.108;2022-07-24T05:13:23;7.50;;;5.38;;
11612;SDS011;5862;48.718;9.108;2022-07-24T05:15:49;6.60;;;6.07;;
11612;SDS011;5862;48.718;9.108;2022-07-24T05:18:21;6.38;;;5.88;;
11612;SDS011;5862;48.718;9.108;2022-07-24T05:20:50;6.00;;;5.45;;
11612;SDS011;5862;48.718;9.108;2022-07-24T05:23:18;5.70;;;5.20;;
11612;SDS011;5862;48.718;9.108;2022-07-24T05:25:47;5.57;;;5.07;;
11612;SDS011;5862;48.718;9.108;2022-07-24T05:28:16;6.72;;;6.13;;
11612;SDS011;5862;48.718;9.108;2022-07-24T05:30:43;6.15;;;5.60;;
11612;SDS011;5862;48.718;9.108;2022-07-24T05:33:09;6.38;;;5.88;;
11612;SDS011;5862;48.718;9.108;2022-07-24T05:35:36;7.03;;;6.43;;
11612;SDS011;5862;48.718;9.108;2022-07-24T05:38:02;6.70;;;6.20;;
11612;SDS011;5862;48.718;9.108;2022-07-24T05:40:31;5.90;;;5.40;;
11612;SDS011;5862;48.718;9.108;2022-07-24T05:42:58;6.18;;;5.68;;
11612;SDS011;5862;48.718;9.108;2022-07-24T05:45:24;6.40;;;5.90;;
11612;SDS011;5862;48.718;9.108;2022-07-24T05:47:53;6.40;;;5.90;;
11612;SDS011;5862;48.718;9.108;2022-07-24T05:50:24;6.15;;;5.55;;
11612;SDS011;5862;48.718;9.108;2022-07-24T05:52:53;6.05;;;5.55;;
11612;SDS011;5862;48.718;9.108;2022-07-24T05:55:20;8.15;;;7.20;;
11612;SDS011;5862;48.718;9.108;2022-07-24T05:57:46;5.97;;;5.47;;
11612;SDS011;5862;48.718;9.108;2022-07-24T06:00:18;6.05;;;5.65;;
11612;SDS011;5862;48.718;9.108;2022-07-24T06:02:49;4.88;;;4.50;;
11612;SDS011;5862;48.718;9.108;2022-07-24T06:05:18;4.97;;;4.57;;
11612;SDS011;5862;48.718;9.108;2022-07-24T06:07:44;5.30;;;4.90;;
11612;SDS011;5862;48.718;9.108;2022-07-24T06:10:16;6.53;;;6.03;;
11612;SDS011;5862;48.718;9.108;2022-07-24T06:12:42;6.50;;;5.90;;
11612;SDS011;5862;48.718;9.108;2022-07-24T06:15:09;6.75;;;6.05;;
11612;SDS011;5862;48.718;9.108;2022-07-24T06:17:36;7.03;;;6.43;;
11612;SDS011;5862;48.718;9.108;2022-07-24T06:20:03;6.55;;;5.70;;
11612;SDS011;5862;48.718;9.108;2022-07-24T06:22:34;5.38;;;4.97;;
11612;SDS011;5862;48.718;9.108;2022-07-24T06:25:00;5.53;;;5.13;;
11612;SDS011;5862;48.718;9.108;2022-07-24T06:27:27;5.20;;;4.72;;
11612;SDS011;5862;48.718;9.108;2022-07-24T06:29:53;6.72;;;6.13;;
11612;SDS011;5862;48.718;9.108;2022-07-24T06:32:25;7.35;;;6.65;;
11612;SDS011;5862;48.718;9.108;2022-07-24T06:34:51;6.22;;;5.72;;
11612;SDS011;5862;48.718;9.108;2022-07-24T06:37:20;5.93;;;5.43;;
11612;SDS011;5862;48.718;9.108;2022-07-24T06:39:49;5.28;;;4.85;;
11612;SDS011;5862;48.718;9.108;2022-07-24T06:42:15;5.00;;;4.60;;
11612;SDS011;5862;48.718;9.108;2022-07-24T06:44:42;5.20;;;4.70;;
11612;SDS011;5862;48.718;9.108;2022-07-24T06:47:08;5.68;;;5.18;;
11612;SDS011;5862;48.718;9.108;2022-07-24T06:49:35;4.88;;;4.40;;
11612;SDS011;5862;48.718;9.108;2022-07-24T06:52:01;5.35;;;4.95;;
11612;SDS011;5862;48.718;9.108;2022-07-24T06:54:28;5.80;;;5.30;;
11612;SDS011;5862;48.718;9.108;2022-07-24T06:56:54;5.70;;;5.30;;
11612;SDS011;5862;48.718;9.108;2022-07-24T06:59:23;5.95;;;5.47;;
11612;SDS011;5862;48.718;9.108;2022-07-24T07:01:52;5.13;;;4.72;;
11612;SDS011;5862;48.718;9.108;2022-07-24T07:04:19;4.30;;;4.00;;
11612;SDS011;5862;48.718;9.108;2022-07-24T07:06:47;4.82;;;4.15;;
11612;SDS011;5862;48.718;9.108;2022-07-24T07:09:17;4.32;;;4.03;;
11612;SDS011;5862;48.718;9.108;2022-07-24T07:11:45;4.55;;;4.15;;
11612;SDS011;5862;48.718;9.108;2022-07-24T07:14:20;4.63;;;4.20;;
11612;SDS011;5862;48.718;9.108;2022-07-24T07:16:46;4.70;;;4.35;;
11612;SDS011;5862;48.718;9.108;2022-07-24T07:19:15;5.03;;;4.60;;
11612;SDS011;5862;48.718;9.108;2022-07-24T07:21:41;4.28;;;3.97;;
11612;SDS011;5862;48.718;9.108;2022-07-24T07:24:08;4.35;;;3.75;;
11612;SDS011;5862;48.718;9.108;2022-07-24T07:26:35;4.40;;;4.10;;
11612;SDS011;5862;48.718;9.108;2022-07-24T07:29:01;4.10;;;3.80;;
11612;SDS011;5862;48.718;9.108;2022-07-24T07:31:28;4.20;;;3.80;;
11612;SDS011;5862;48.718;9.108;2022-07-24T07:33:57;5.05;;;4.70;;
11612;SDS011;5862;48.718;9.108;2022-07-24T07:36:26;4.65;;;4.25;;
11612;SDS011;5862;48.718;9.108;2022-07-24T07:38:52;4.25;;;3.85;;
11612;SDS011;5862;48.718;9.108;2022-07-24T07:41:22;3.88;;;3.60;;
11612;SDS011;5862;48.718;9.108;2022-07-24T07:43:53;3.85;;;3.45;;
11612;SDS011;5862;48.718;9.108;2022-07-24T07:46:24;4.30;;;4.00;;
11612;SDS011;5862;48.718;9.108;2022-07-24T07:48:52;4.13;;;3.80;;
11612;SDS011;5862;48.718;9.108;2022-07-24T07:51:19;3.50;;;3.20;;
11612;SDS011;5862;48.718;9.108;2022-07-24T07:53:49;4.20;;;3.80;;
11612;SDS011;5862;48.718;9.108;2022-07-24T07:56:18;3.90;;;3.60;;
11612;SDS011;5862;48.718;9.108;2022-07-24T07:58:50;3.70;;;3.40;;
11612;SDS011;5862;48.718;9.108;2022-07-24T08:01:19;3.65;;;3.35;;
11612;SDS011;5862;48.718;9.108;2022-07-24T08:03:48;3.75;;;3.45;;
11612;SDS011;5862;48.718;9.108;2022-07-24T08:06:14;3.42;;;3.22;;
11612;SDS011;5862;48.718;9.108;2022-07-24T08:08:41;3.88;;;3.58;;
11612;SDS011;5862;48.718;9.108;2022-07-24T08:11:07;3.45;;;3.22;;
11612;SDS011;5862;48.718;9.108;2022-07-24T08:13:34;4.03;;;3.72;;
11612;SDS011;5862;48.718;9.108;2022-07-24T08:16:03;3.15;;;2.90;;
11612;SDS011;5862;48.718;9.108;2022-07-24T08:18:31;3.95;;;3.65;;
11612;SDS011;5862;48.718;9.108;2022-07-24T08:20:57;3.97;;;3.45;;
11612;SDS011;5862;48.718;9.108;2022-07-24T08:23:24;3.70;;;3.40;;
11612;SDS011;5862;48.718;9.108;2022-07-24T08:25:50;4.07;;;3.67;;
11612;SDS011;5862;48.718;9.108;2022-07-24T08:28:17;4.53;;;4.15;;
11612;SDS011;5862;48.718;9.108;2022-07-24T08:30:46;3.28;;;3.08;;
11612;SDS011;5862;48.718;9.108;2022-07-24T08:33:15;4.00;;;3.70;;
11612;SDS011;5862;48.718;9.108;2022-07-24T08:35:41;4.35;;;4.03;;
11612;SDS011;5862;48.718;9.108;2022-07-24T08:38:08;3.97;;;3.67;;
11612;SDS011;5862;48.718;9.108;2022-07-24T08:40:38;3.97;;;3.70;;
11612;SDS011;5862;48.718;9.108;2022-07-24T08:43:06;4.13;;;3.78;;
11612;SDS011;5862;48.718;9.108;2022-07-24T08:45:34;5.53;;;4.55;;
11612;SDS011;5862;48.718;9.108;2022-07-24T08:48:06;5.25;;;4.50;;
11612;SDS011;5862;48.718;9.108;2022-07-24T08:50:35;4.68;;;4.28;;
11612;SDS011;5862;48.718;9.108;2022-07-24T08:53:03;4.35;;;4.05;;
11612;SDS011;5862;48.718;9.108;2022-07-24T08:55:30;4.15;;;3.80;;
11612;SDS011;5862;48.718;9.108;2022-07-24T08:57:58;3.92;;;3.63;;
11612;SDS011;5862;48.718;9.108;2022-07-24T09:00:28;3.70;;;3.40;;
11612;SDS011;5862;48.718;9.108;2022-07-24T09:02:56;4.60;;;4.20;;
11612;SDS011;5862;48.718;9.108;2022-07-24T09:05:22;3.83;;;3.53;;
11612;SDS011;5862;48.718;9.108;2022-07-24T09:07:50;3.72;;;3.47;;
11612;SDS011;5862;48.718;9.108;2022-07-24T09:10:37;3.30;;;3.10;;
11612;SDS011;5862;48.718;9.108;2022-07-24T09:13:14;3.63;;;3.33;;
11612;SDS011;5862;48.718;9.108;2022-07-24T09:15:45;4.07;;;3.78;;
11612;SDS011;5862;48.718;9.108;2022-07-24T09:18:26;3.80;;;3.53;;
11612;SDS011;5862;48.718;9.108;2022-07-24T09:20:59;3.20;;;3.00;;
11612;SDS011;5862;48.718;9.108;2022-07-24T09:23:41;3.70;;;3.40;;
11612;SDS011;5862;48.718;9.108;2022-07-24T09:26:10;3.92;;;3.63;;
11612;SDS011;5862;48.718;9.108;2022-07-24T09:28:50;4.18;;;3.88;;
11612;SDS011;5862;48.718;9.108;2022-07-24T09:31:20;4.15;;;3.80;;
11612;SDS011;5862;48.718;9.108;2022-07-24T09:33:52;4.93;;;4.53;;
11612;SDS011;5862;48.718;9.108;2022-07-24T09:36:19;5.13;;;4.50;;
11612;SDS011;5862;48.718;9.108;2022-07-24T09:38:49;5.00;;;4.60;;
11612;SDS011;5862;48.718;9.108;2022-07-24T09:41:24;4.40;;;4.00;;
11612;SDS011;5862;48.718;9.108;2022-07-24T09:43:59;4.72;;;4.32;;
11612;SDS011;5862;48.718;9.108;2022-07-24T09:46:27;4.10;;;3.80;;
11612;SDS011;5862;48.718;9.108;2022-07-24T09:48:58;4.13;;;3.83;;
11612;SDS011;5862;48.718;9.108;2022-07-24T09:51:29;4.13;;;3.83;;
11612;SDS011;5862;48.718;9.108;2022-07-24T09:53:56;4.40;;;4.10;;
11612;SDS011;5862;48.718;9.108;2022-07-24T09:56:25;4.22;;;3.92;;
11612;SDS011;5862;48.718;9.108;2022-07-24T09:58:57;4.40;;;4.07;;
11612;SDS011;5862;48.718;9.108;2022-07-24T10:01:26;3.90;;;3.60;;
11612;SDS011;5862;48.718;9.108;2022-07-24T10:03:54;4.40;;;4.00;;
11612;SDS011;5862;48.718;9.108;2022-07-24T10:06:25;3.95;;;3.72;;
11612;SDS011;5862;48.718;9.108;2022-07-24T10:08:52;4.20;;;3.90;;
11612;SDS011;5862;48.718;9.108;2022-07-24T10:11:23;4.25;;;3.95;;
11612;SDS011;5862;48.718;9.108;2022-07-24T10:13:49;5.35;;;4.40;;
11612;SDS011;5862;48.718;9.108;2022-07-24T10:16:25;4.00;;;3.70;;
11612;SDS011;5862;48.718;9.108;2022-07-24T10:19:03;4.50;;;3.22;;
11612;SDS011;5862;48.718;9.108;2022-07-24T10:26:59;4.22;;;3.92;;
11612;SDS011;5862;48.718;9.108;2022-07-24T10:29:29;3.80;;;3.50;;
11612;SDS011;5862;48.718;9.108;2022-07-24T10:31:58;3.78;;;3.47;;
11612;SDS011;5862;48.718;9.108;2022-07-24T10:53:26;3.75;;;3.47;;
11612;SDS011;5862;48.718;9.108;2022-07-24T10:56:12;3.67;;;3.40;;
11612;SDS011;5862;48.718;9.108;2022-07-24T10:58:52;3.53;;;3.22;;
11612;SDS011;5862;48.718;9.108;2022-07-24T11:01:34;4.40;;;4.00;;
11612;SDS011;5862;48.718;9.108;2022-07-24T11:06:53;4.10;;;3.80;;
11612;SDS011;5862;48.718;9.108;2022-07-24T11:09:21;4.50;;;4.20;;
11612;SDS011;5862;48.718;9.108;2022-07-24T11:20:05;3.90;;;3.60;;
11612;SDS011;5862;48.718;9.108;2022-07-24T11:22:51;4.88;;;4.55;;
11612;SDS011;5862;48.718;9.108;2022-07-24T11:30:24;4.43;;;4.13;;
11612;SDS011;5862;48.718;9.108;2022-07-24T11:32:52;4.50;;;4.10;;
11612;SDS011;5862;48.718;9.108;2022-07-24T11:35:35;5.20;;;4.80;;
11612;SDS011;5862;48.718;9.108;2022-07-24T11:38:05;5.13;;;4.72;;
11612;SDS011;5862;48.718;9.108;2022-07-24T11:40:33;5.13;;;4.72;;
11612;SDS011;5862;48.718;9.108;2022-07-24T11:43:03;5.68;;;5.28;;
11612;SDS011;5862;48.718;9.108;2022-07-24T11:45:36;5.15;;;4.70;;
11612;SDS011;5862;48.718;9.108;2022-07-24T11:48:03;5.30;;;4.82;;
11612;SDS011;5862;48.718;9.108;2022-07-24T11:50:30;5.15;;;4.78;;
11612;SDS011;5862;48.718;9.108;2022-07-24T11:52:58;5.13;;;4.72;;
11612;SDS011;5862;48.718;9.108;2022-07-24T11:55:25;4.78;;;4.43;;
11612;SDS011;5862;48.718;9.108;2022-07-24T11:57:53;5.13;;;4.72;;
11612;SDS011;5862;48.718;9.108;2022-07-24T12:00:42;4.57;;;4.28;;
11612;SDS011;5862;48.718;9.108;2022-07-24T12:03:09;4.60;;;4.20;;
11612;SDS011;5862;48.718;9.108;2022-07-24T12:05:37;4.43;;;4.03;;
11612;SDS011;5862;48.718;9.108;2022-07-24T12:08:15;3.97;;;3.67;;
11612;SDS011;5862;48.718;9.108;2022-07-24T12:10:46;5.03;;;4.63;;
11612;SDS011;5862;48.718;9.108;2022-07-24T12:13:15;4.90;;;4.50;;
11612;SDS011;5862;48.718;9.108;2022-07-24T12:15:45;4.32;;;3.92;;
11612;SDS011;5862;48.718;9.108;2022-07-24T12:18:13;3.97;;;3.72;;
11612;SDS011;5862;48.718;9.108;2022-07-24T12:20:41;4.18;;;3.88;;
11612;SDS011;5862;48.718;9.108;2022-07-24T12:23:09;4.32;;;4.03;;
11612;SDS011;5862;48.718;9.108;2022-07-24T12:25:42;4.25;;;3.95;;
11612;SDS011;5862;48.718;9.108;2022-07-24T12:28:16;3.75;;;3.45;;
11612;SDS011;5862;48.718;9.108;2022-07-24T12:30:47;4.75;;;4.45;;
11612;SDS011;5862;48.718;9.108;2022-07-24T12:38:50;4.90;;;4.40;;
11612;SDS011;5862;48.718;9.108;2022-07-24T12:41:19;4.55;;;4.20;;
11612;SDS011;5862;48.718;9.108;2022-07-24T12:43:53;5.35;;;4.95;;
11612;SDS011;5862;48.718;9.108;2022-07-24T12:46:21;5.05;;;4.18;;
11612;SDS011;5862;48.718;9.108;2022-07-24T12:56:49;5.03;;;4.63;;
11612;SDS011;5862;48.718;9.108;2022-07-24T13:01:50;5.60;;;5.13;;
11612;SDS011;5862;48.718;9.108;2022-07-24T13:04:19;5.47;;;5.07;;
11612;SDS011;5862;48.718;9.108;2022-07-24T13:06:51;4.97;;;4.57;;
11612;SDS011;5862;48.718;9.108;2022-07-24T13:09:20;5.40;;;4.88;;
11612;SDS011;5862;48.718;9.108;2022-07-24T13:11:50;4.97;;;4.53;;
11612;SDS011;5862;48.718;9.108;2022-07-24T13:14:21;5.75;;;5.32;;
11612;SDS011;5862;48.718;9.108;2022-07-24T13:16:52;5.30;;;4.90;;
11612;SDS011;5862;48.718;9.108;2022-07-24T13:19:19;4.88;;;4.47;;
11612;SDS011;5862;48.718;9.108;2022-07-24T13:21:46;4.88;;;4.50;;
11612;SDS011;5862;48.718;9.108;2022-07-24T13:24:15;4.78;;;4.40;;
11612;SDS011;5862;48.718;9.108;2022-07-24T13:26:44;4.65;;;3.78;;
11612;SDS011;5862;48.718;9.108;2022-07-24T13:29:12;4.65;;;3.92;;
11612;SDS011;5862;48.718;9.108;2022-07-24T13:31:40;4.40;;;4.00;;
11612;SDS011;5862;48.718;9.108;2022-07-24T13:34:10;5.47;;;4.95;;
11612;SDS011;5862;48.718;9.108;2022-07-24T13:36:40;5.85;;;5.25;;
11612;SDS011;5862;48.718;9.108;2022-07-24T13:39:09;4.88;;;4.47;;
11612;SDS011;5862;48.718;9.108;2022-07-24T13:41:36;5.40;;;4.90;;
11612;SDS011;5862;48.718;9.108;2022-07-24T13:44:05;6.47;;;5.63;;
11612;SDS011;5862;48.718;9.108;2022-07-24T13:46:33;6.68;;;5.32;;
11612;SDS011;5862;48.718;9.108;2022-07-24T13:49:03;6.10;;;5.55;;
11612;SDS011;5862;48.718;9.108;2022-07-24T13:51:30;7.63;;;6.93;;
11612;SDS011;5862;48.718;9.108;2022-07-24T13:53:59;5.55;;;5.15;;
11612;SDS011;5862;48.718;9.108;2022-07-24T13:56:26;34.58;;;25.25;;
11612;SDS011;5862;48.718;9.108;2022-07-24T13:58:53;33.72;;;26.33;;
11612;SDS011;5862;48.718;9.108;2022-07-24T14:01:22;39.88;;;29.63;;
11612;SDS011;5862;48.718;9.108;2022-07-24T14:04:03;23.05;;;18.27;;
11612;SDS011;5862;48.718;9.108;2022-07-24T14:09:25;10.85;;;8.77;;
11612;SDS011;5862;48.718;9.108;2022-07-24T14:11:54;15.77;;;13.25;;
11612;SDS011;5862;48.718;9.108;2022-07-24T14:14:21;10.13;;;9.10;;
11612;SDS011;5862;48.718;9.108;2022-07-24T14:16:47;15.27;;;12.45;;
11612;SDS011;5862;48.718;9.108;2022-07-24T14:19:17;11.15;;;9.95;;
11612;SDS011;5862;48.718;9.108;2022-07-24T14:21:43;15.05;;;12.10;;
11612;SDS011;5862;48.718;9.108;2022-07-24T14:24:15;11.07;;;9.40;;
11612;SDS011;5862;48.718;9.108;2022-07-24T14:26:45;9.93;;;8.35;;
11612;SDS011;5862;48.718;9.108;2022-07-24T14:29:14;14.50;;;12.15;;
11612;SDS011;5862;48.718;9.108;2022-07-24T14:31:41;8.52;;;7.60;;
11612;SDS011;5862;48.718;9.108;2022-07-24T14:34:10;8.77;;;7.88;;
11612;SDS011;5862;48.718;9.108;2022-07-24T14:36:36;7.90;;;7.20;;
11612;SDS011;5862;48.718;9.108;2022-07-24T14:39:05;8.15;;;7.32;;
11612;SDS011;5862;48.718;9.108;2022-07-24T14:41:32;9.82;;;8.68;;
11612;SDS011;5862;48.718;9.108;2022-07-24T14:43:59;10.75;;;9.63;;
11612;SDS011;5862;48.718;9.108;2022-07-24T14:46:31;8.77;;;7.88;;
11612;SDS011;5862;48.718;9.108;2022-07-24T14:48:58;5.65;;;5.25;;
11612;SDS011;5862;48.718;9.108;2022-07-24T14:51:25;5.20;;;4.80;;
11612;SDS011;5862;48.718;9.108;2022-07-24T14:53:54;6.60;;;6.00;;
11612;SDS011;5862;48.718;9.108;2022-07-24T14:56:22;7.10;;;6.40;;
11612;SDS011;5862;48.718;9.108;2022-07-24T14:58:52;5.45;;;5.03;;
11612;SDS011;5862;48.718;9.108;2022-07-24T15:01:24;7.55;;;6.85;;
11612;SDS011;5862;48.718;9.108;2022-07-24T15:03:50;6.00;;;5.60;;
11612;SDS011;5862;48.718;9.108;2022-07-24T15:06:19;6.13;;;5.53;;
11612;SDS011;5862;48.718;9.108;2022-07-24T15:08:46;4.85;;;4.47;;
11612;SDS011;5862;48.718;9.108;2022-07-24T15:11:15;4.68;;;4.30;;
11612;SDS011;5862;48.718;9.108;2022-07-24T15:13:42;4.60;;;4.30;;
11612;SDS011;5862;48.718;9.108;2022-07-24T15:16:08;5.78;;;5.30;;
11612;SDS011;5862;48.718;9.108;2022-07-24T15:18:35;5.88;;;5.35;;
11612;SDS011;5862;48.718;9.108;2022-07-24T15:21:03;4.97;;;4.57;;
11612;SDS011;5862;48.718;9.108;2022-07-24T15:23:32;5.30;;;4.90;;
11612;SDS011;5862;48.718;9.108;2022-07-24T15:25:59;6.00;;;4.72;;
11612;SDS011;5862;48.718;9.108;2022-07-24T15:28:28;4.97;;;4.57;;
11612;SDS011;5862;48.718;9.108;2022-07-24T15:30:58;5.60;;;5.10;;
11612;SDS011;5862;48.718;9.108;2022-07-24T15:33:27;4.68;;;4.32;;
11612;SDS011;5862;48.718;9.108;2022-07-24T15:35:56;3.97;;;3.67;;
11612;SDS011;5862;48.718;9.108;2022-07-24T15:38:23;5.22;;;4.80;;
11612;SDS011;5862;48.718;9.108;2022-07-24T15:40:49;5.18;;;4.78;;
11612;SDS011;5862;48.718;9.108;2022-07-24T15:43:18;4.88;;;4.47;;
11612;SDS011;5862;48.718;9.108;2022-07-24T15:45:47;5.75;;;5.35;;
11612;SDS011;5862;48.718;9.108;2022-07-24T15:48:16;4.70;;;4.40;;
11612;SDS011;5862;48.718;9.108;2022-07-24T15:50:45;3.40;;;3.20;;
11612;SDS011;5862;48.718;9.108;2022-07-24T15:53:14;4.85;;;4.50;;
11612;SDS011;5862;48.718;9.108;2022-07-24T15:55:40;5.47;;;5.07;;
11612;SDS011;5862;48.718;9.108;2022-07-24T15:58:07;4.13;;;3.83;;
11612;SDS011;5862;48.718;9.108;2022-07-24T16:00:36;5.35;;;4.93;;
11612;SDS011;5862;48.718;9.108;2022-07-24T16:03:02;5.63;;;5.22;;
11612;SDS011;5862;48.718;9.108;2022-07-24T16:05:30;5.05;;;4.65;;
11612;SDS011;5862;48.718;9.108;2022-07-24T16:07:58;4.72;;;4.40;;
11612;SDS011;5862;48.718;9.108;2022-07-24T16:10:25;4.63;;;4.22;;
11612;SDS011;5862;48.718;9.108;2022-07-24T16:12:54;5.45;;;5.05;;